Malatya/Erhac, Turkey
Current Conditions -  °F | °C
As of 4:20 AM on Wednesday 22 Oct 2014 (Local Time) from LTAT Reporting Station
Clear Clear  
Wind Chill:   Ceiling: Unl
Heat Index:   Visibility: 6mi
Dew Point:   Wind: 3mph
Humidity: 100%   Direction: 210°SSW
Pressure: 30.09"   Gusts: NA
Location:  38.43°N, 38.08°E
Report Text: LTAT 220120Z 21003KT CAVOK 02/02 Q1019 NOSIG
Loading
Personal Weather Stations






























Interactive Weather Map
Tropical Storm Tracking
New forecast layout! Learn more

10-Day Weather Forecast

Advertisements
Track Severe Weather on mobile